Time;durP1;ratioP1;P1;durP2;ratioP2;P2;SDS_P1;SDS_P2;PMS_P1;PMS_P2;Temp;Humidity;BMP_temperature;BMP_pressure;BME280_temperature;BME280_humidity;BME280_pressure;Samples;Min_cycle;Max_cycle;Signal;HPM_P1;HPM_P2
2022/11/10 00:01:54;;;;;;;134.32;43.67;;;;;;;;;;5017107;28;20049;-39
2022/11/10 00:04:39;;;;;;;111.25;41.83;;;;;;;;;;5018479;28;20525;-39
2022/11/10 00:07:25;;;;;;;112.57;39.33;;;;;;;;;;5015003;28;20060;-39
2022/11/10 00:10:10;;;;;;;102.97;40.92;;;;;;;;;;5017112;28;20104;-38
2022/11/10 00:12:58;;;;;;;135.05;43.38;;;;;;;;;;5016841;28;20093;-38
2022/11/10 00:18:47;;;;;;;134.70;45.85;;;;;;;;;;5018407;28;20055;-38
2022/11/10 00:21:32;;;;;;;115.65;42.85;;;;;;;;;;5016214;28;20096;-39
2022/11/10 00:24:17;;;;;;;121.13;45.30;;;;;;;;;;5019380;28;20889;-39
2022/11/10 00:27:02;;;;;;;111.13;43.55;;;;;;;;;;5016756;28;20053;-39
2022/11/10 00:29:46;;;;;;;121.32;45.08;;;;;;;;;;5014527;28;20057;-39
2022/11/10 00:32:31;;;;;;;123.75;44.70;;;;;;;;;;5020289;28;20052;-38
2022/11/10 00:35:17;;;;;;;100.90;40.90;;;;;;;;;;5021145;28;20536;-38
2022/11/10 00:38:02;;;;;;;119.38;43.88;;;;;;;;;;5016819;28;20529;-39
2022/11/10 00:40:47;;;;;;;105.20;39.35;;;;;;;;;;5014683;28;20141;-38
2022/11/10 00:43:32;;;;;;;131.18;44.15;;;;;;;;;;5018489;28;20060;-38
2022/11/10 00:46:18;;;;;;;111.90;41.47;;;;;;;;;;5012873;28;20057;-38
2022/11/10 00:49:03;;;;;;;115.35;44.15;;;;;;;;;;5015875;28;20048;-38
2022/11/10 00:51:48;;;;;;;140.05;44.75;;;;;;;;;;5017539;28;20045;-38
2022/11/10 00:54:33;;;;;;;112.22;41.33;;;;;;;;;;5018820;28;20176;-38
2022/11/10 00:57:18;;;;;;;118.35;42.60;;;;;;;;;;5016585;28;20433;-38
2022/11/10 01:00:03;;;;;;;124.35;44.45;;;;;;;;;;5016424;28;20085;-38
2022/11/10 01:02:49;;;;;;;116.90;41.42;;;;;;;;;;5017271;28;20276;-38
2022/11/10 01:05:37;;;;;;;138.25;45.38;;;;;;;;;;5019666;28;20052;-38
2022/11/10 01:08:22;;;;;;;125.55;45.60;;;;;;;;;;5019013;28;20614;-39
2022/11/10 01:11:09;;;;;;;112.85;42.35;;;;;;;;;;5016094;28;20057;-39
2022/11/10 01:13:55;;;;;;;124.63;42.42;;;;;;;;;;5014627;28;20069;-38
2022/11/10 01:16:39;;;;;;;121.20;41.38;;;;;;;;;;5014165;28;20048;-38
2022/11/10 01:19:24;;;;;;;117.07;42.30;;;;;;;;;;5022302;28;20107;-39
2022/11/10 01:22:09;;;;;;;111.13;41.55;;;;;;;;;;5019384;28;20414;-39
2022/11/10 01:24:54;;;;;;;109.68;41.30;;;;;;;;;;5012946;28;20065;-39
2022/11/10 01:27:39;;;;;;;131.23;45.03;;;;;;;;;;5013439;28;20049;-39
2022/11/10 01:30:24;;;;;;;117.72;42.25;;;;;;;;;;5012914;28;20092;-38
2022/11/10 01:33:09;;;;;;;111.43;42.10;;;;;;;;;;5017188;28;20111;-38
2022/11/10 01:35:54;;;;;;;121.20;42.25;;;;;;;;;;5016707;28;20115;-38
2022/11/10 01:38:39;;;;;;;109.53;41.67;;;;;;;;;;5020774;28;20057;-37
2022/11/10 01:41:25;;;;;;;108.35;39.58;;;;;;;;;;5016762;28;20060;-39
2022/11/10 01:44:14;;;;;;;99.07;40.70;;;;;;;;;;5020186;28;20068;-38
2022/11/10 01:46:59;;;;;;;110.72;40.97;;;;;;;;;;5015824;28;20072;-38
2022/11/10 01:49:45;;;;;;;122.85;43.03;;;;;;;;;;5014218;28;20048;-38
2022/11/10 01:52:32;;;;;;;101.60;42.50;;;;;;;;;;5015899;28;20057;-39
2022/11/10 01:55:17;;;;;;;119.22;43.30;;;;;;;;;;5011683;28;20044;-38
2022/11/10 01:58:02;;;;;;;110.40;40.40;;;;;;;;;;5013167;28;20060;-38
2022/11/10 02:00:48;;;;;;;113.07;40.95;;;;;;;;;;5015750;28;20188;-39
2022/11/10 02:03:59;;;;;;;110.75;40.88;;;;;;;;;;5016652;28;20060;-38
2022/11/10 02:06:45;;;;;;;98.28;39.08;;;;;;;;;;5015976;28;20596;-39
2022/11/10 02:09:30;;;;;;;116.97;42.20;;;;;;;;;;5014158;28;20128;-38
2022/11/10 02:12:35;;;;;;;114.82;40.78;;;;;;;;;;5017045;28;20053;-39
2022/11/10 02:15:21;;;;;;;111.05;41.63;;;;;;;;;;5018938;28;20517;-39
2022/11/10 02:18:06;;;;;;;134.07;43.55;;;;;;;;;;5020006;28;20053;-38
2022/11/10 02:20:51;;;;;;;135.38;42.75;;;;;;;;;;5021190;28;20061;-38
2022/11/10 02:23:36;;;;;;;126.10;43.42;;;;;;;;;;5023078;28;20052;-39
2022/11/10 02:26:22;;;;;;;117.05;42.67;;;;;;;;;;5018473;28;20057;-39
2022/11/10 02:29:08;;;;;;;131.02;42.78;;;;;;;;;;5020327;28;20521;-39
2022/11/10 02:31:53;;;;;;;137.57;43.25;;;;;;;;;;5019561;28;20061;-38
2022/11/10 02:34:38;;;;;;;120.20;43.25;;;;;;;;;;5018837;28;20057;-39
2022/11/10 02:37:23;;;;;;;113.10;41.08;;;;;;;;;;5019767;28;20118;-38
2022/11/10 02:40:08;;;;;;;135.30;42.72;;;;;;;;;;5018270;28;20112;-37
2022/11/10 02:42:53;;;;;;;115.53;41.97;;;;;;;;;;5018081;28;20517;-38
2022/11/10 02:45:44;;;;;;;123.55;41.95;;;;;;;;;;5019001;28;20061;-39
2022/11/10 02:48:28;;;;;;;120.97;42.88;;;;;;;;;;5018117;28;20445;-38
2022/11/10 02:51:13;;;;;;;113.97;41.58;;;;;;;;;;5021139;28;20054;-38
2022/11/10 02:53:58;;;;;;;144.32;44.97;;;;;;;;;;5017108;28;20045;-38
2022/11/10 02:56:43;;;;;;;98.55;38.33;;;;;;;;;;5016029;28;20500;-38
2022/11/10 02:59:28;;;;;;;135.00;44.17;;;;;;;;;;5021981;28;20114;-38
2022/11/10 03:02:14;;;;;;;127.95;42.03;;;;;;;;;;5023244;28;20056;-38
2022/11/10 03:04:59;;;;;;;105.10;40.10;;;;;;;;;;5015573;28;20176;-38
2022/11/10 03:07:43;;;;;;;127.85;43.40;;;;;;;;;;5018903;28;20056;-38
2022/11/10 03:10:29;;;;;;;125.47;45.10;;;;;;;;;;5017039;28;20173;-38
2022/11/10 03:13:14;;;;;;;114.57;43.13;;;;;;;;;;5015250;28;20061;-38
2022/11/10 03:15:59;;;;;;;150.48;46.65;;;;;;;;;;5015012;28;20056;-38
2022/11/10 03:18:44;;;;;;;113.43;42.33;;;;;;;;;;5017366;28;20132;-38
2022/11/10 03:21:29;;;;;;;122.82;43.72;;;;;;;;;;5017976;28;20567;-38
2022/11/10 03:24:14;;;;;;;134.25;47.72;;;;;;;;;;5018634;28;20092;-38
2022/11/10 03:26:59;;;;;;;134.48;45.67;;;;;;;;;;5015744;28;20052;-39
2022/11/10 03:29:44;;;;;;;115.22;42.13;;;;;;;;;;5020547;28;20052;-38
2022/11/10 03:32:29;;;;;;;100.88;41.65;;;;;;;;;;5022832;28;21067;-38
2022/11/10 03:35:14;;;;;;;101.50;42.75;;;;;;;;;;5017122;28;20413;-39
2022/11/10 03:37:59;;;;;;;127.25;44.65;;;;;;;;;;5019136;28;20052;-38
2022/11/10 03:40:43;;;;;;;107.43;40.83;;;;;;;;;;5021321;28;20583;-38
2022/11/10 03:43:49;;;;;;;129.38;45.78;;;;;;;;;;5013312;28;20406;-38
2022/11/10 03:46:33;;;;;;;138.68;44.75;;;;;;;;;;5015890;28;20065;-38
2022/11/10 03:49:18;;;;;;;119.05;41.58;;;;;;;;;;5015588;28;20048;-38
2022/11/10 03:52:03;;;;;;;126.95;43.30;;;;;;;;;;5018797;28;20051;-38
2022/11/10 03:54:48;;;;;;;114.32;39.50;;;;;;;;;;5020358;28;20131;-38
2022/11/10 03:57:33;;;;;;;102.28;41.50;;;;;;;;;;5015166;28;20172;-38
2022/11/10 04:00:19;;;;;;;123.55;44.72;;;;;;;;;;5020398;28;20137;-38
2022/11/10 04:03:04;;;;;;;122.95;42.05;;;;;;;;;;5017141;28;20108;-39
2022/11/10 04:08:59;;;;;;;125.30;44.15;;;;;;;;;;5019815;28;20065;-39
2022/11/10 04:17:52;;;;;;;127.70;41.85;;;;;;;;;;5019118;28;20142;-38
2022/11/10 04:20:36;;;;;;;112.30;43.10;;;;;;;;;;5021039;28;20051;-39
2022/11/10 04:23:56;;;;;;;116.68;43.75;;;;;;;;;;5019193;28;20176;-39
2022/11/10 04:26:37;;;;;;;115.22;41.75;;;;;;;;;;5020197;28;20061;-39
2022/11/10 04:29:22;;;;;;;117.75;43.95;;;;;;;;;;5017143;28;20104;-39
2022/11/10 04:32:07;;;;;;;119.40;44.78;;;;;;;;;;5018531;28;20057;-39
2022/11/10 04:34:52;;;;;;;135.80;46.33;;;;;;;;;;5016435;28;20049;-38
2022/11/10 04:37:36;;;;;;;124.78;45.95;;;;;;;;;;5018611;28;20183;-38
2022/11/10 04:40:21;;;;;;;114.80;43.80;;;;;;;;;;5019651;28;20068;-39
2022/11/10 04:43:06;;;;;;;143.82;46.88;;;;;;;;;;5012484;28;20056;-39
2022/11/10 04:45:51;;;;;;;133.90;46.97;;;;;;;;;;5016544;28;20072;-38
2022/11/10 04:48:36;;;;;;;136.50;45.65;;;;;;;;;;5016234;28;20095;-38
2022/11/10 04:51:26;;;;;;;110.85;42.55;;;;;;;;;;5015633;28;20073;-38
2022/11/10 04:54:12;;;;;;;110.95;44.88;;;;;;;;;;5016910;28;20045;-39
2022/11/10 04:56:58;;;;;;;149.60;48.13;;;;;;;;;;5014995;28;20052;-39
2022/11/10 04:59:42;;;;;;;137.05;48.00;;;;;;;;;;5021729;28;20057;-39
2022/11/10 05:06:22;;;;;;;160.30;47.03;;;;;;;;;;5014368;28;20037;-39
2022/11/10 05:09:07;;;;;;;134.88;44.97;;;;;;;;;;5017865;28;20139;-39
2022/11/10 05:11:52;;;;;;;150.75;46.97;;;;;;;;;;5015793;28;20111;-38
2022/11/10 05:14:37;;;;;;;145.35;48.03;;;;;;;;;;5020393;28;20062;-39
2022/11/10 05:17:22;;;;;;;146.52;48.33;;;;;;;;;;5019162;28;20077;-39
2022/11/10 05:20:07;;;;;;;139.65;46.67;;;;;;;;;;5017417;28;20064;-39
2022/11/10 05:25:56;;;;;;;124.55;44.55;;;;;;;;;;5017500;28;20053;-39
2022/11/10 05:28:42;;;;;;;144.18;50.35;;;;;;;;;;5017737;28;20670;-39
2022/11/10 05:31:29;;;;;;;176.32;54.33;;;;;;;;;;5014887;28;20123;-38
2022/11/10 05:34:14;;;;;;;150.18;49.85;;;;;;;;;;5014714;28;20107;-39
2022/11/10 05:36:59;;;;;;;164.07;51.75;;;;;;;;;;5014590;28;20149;-38
2022/11/10 05:39:44;;;;;;;142.23;49.47;;;;;;;;;;5013762;28;20065;-38
2022/11/10 05:42:28;;;;;;;186.75;55.63;;;;;;;;;;5013414;28;20406;-38
2022/11/10 05:45:14;;;;;;;174.05;53.78;;;;;;;;;;5015530;28;20064;-38
2022/11/10 05:47:59;;;;;;;202.27;57.97;;;;;;;;;;5013509;28;20417;-38
2022/11/10 05:50:44;;;;;;;167.70;53.60;;;;;;;;;;5015943;28;20048;-39
2022/11/10 05:53:29;;;;;;;160.75;53.22;;;;;;;;;;5013805;28;20061;-38
2022/11/10 05:56:15;;;;;;;172.27;54.45;;;;;;;;;;5018148;28;20115;-39
2022/11/10 05:59:00;;;;;;;174.63;54.60;;;;;;;;;;5016648;28;20113;-38
2022/11/10 06:01:45;;;;;;;129.90;47.70;;;;;;;;;;5010735;28;20133;-39
2022/11/10 06:04:30;;;;;;;172.68;53.70;;;;;;;;;;5018371;28;20056;-38
2022/11/10 06:07:15;;;;;;;185.10;55.67;;;;;;;;;;5016770;28;20044;-39
2022/11/10 06:10:00;;;;;;;172.10;54.25;;;;;;;;;;5015479;28;20422;-38
2022/11/10 06:12:45;;;;;;;154.13;49.78;;;;;;;;;;5015560;28;20068;-39
2022/11/10 06:15:30;;;;;;;188.25;54.30;;;;;;;;;;5016030;28;20124;-39
2022/11/10 06:18:16;;;;;;;177.68;54.30;;;;;;;;;;5015122;28;20065;-38
2022/11/10 06:21:01;;;;;;;212.88;57.33;;;;;;;;;;5014184;28;20124;-39
2022/11/10 06:23:46;;;;;;;158.52;51.38;;;;;;;;;;5021187;28;20061;-38
2022/11/10 06:26:31;;;;;;;205.15;56.92;;;;;;;;;;5018840;28;20052;-38
2022/11/10 06:29:16;;;;;;;183.40;53.08;;;;;;;;;;5019439;28;20048;-38
2022/11/10 06:32:08;;;;;;;212.00;57.90;;;;;;;;;;5012604;28;20525;-39
2022/11/10 06:34:53;;;;;;;208.32;57.42;;;;;;;;;;5016780;28;20184;-38
2022/11/10 06:37:44;;;;;;;191.73;56.70;;;;;;;;;;5017023;28;20084;-38
2022/11/10 06:40:30;;;;;;;163.60;52.53;;;;;;;;;;5015236;28;20056;-38
2022/11/10 06:43:14;;;;;;;209.80;58.90;;;;;;;;;;5015424;28;20053;-38
2022/11/10 06:45:59;;;;;;;207.90;59.72;;;;;;;;;;5010496;28;20064;-38
2022/11/10 06:48:44;;;;;;;206.82;59.00;;;;;;;;;;5013241;28;20056;-38
2022/11/10 06:51:29;;;;;;;212.25;58.80;;;;;;;;;;5016320;28;20057;-38
2022/11/10 06:54:14;;;;;;;196.77;56.53;;;;;;;;;;5017094;28;20128;-38
2022/11/10 06:56:59;;;;;;;240.55;62.67;;;;;;;;;;5016111;28;20067;-38
2022/11/10 06:59:44;;;;;;;171.63;53.03;;;;;;;;;;5020422;28;20146;-38
2022/11/10 07:02:29;;;;;;;264.40;64.78;;;;;;;;;;5019385;28;20517;-37
2022/11/10 07:05:14;;;;;;;249.52;63.22;;;;;;;;;;5020196;28;20498;-38
2022/11/10 07:08:07;;;;;;;200.13;58.13;;;;;;;;;;5018717;28;20057;-38
2022/11/10 07:10:53;;;;;;;314.60;69.30;;;;;;;;;;5014589;28;20081;-38
2022/11/10 07:13:38;;;;;;;156.43;52.30;;;;;;;;;;5016095;28;20061;-39
2022/11/10 07:16:23;;;;;;;269.23;63.88;;;;;;;;;;5019343;28;20064;-39
2022/11/10 07:19:08;;;;;;;185.27;53.22;;;;;;;;;;5018422;28;20720;-39
2022/11/10 07:21:53;;;;;;;214.13;58.45;;;;;;;;;;5020668;28;20076;-37
2022/11/10 07:24:38;;;;;;;197.57;54.38;;;;;;;;;;5018103;28;20047;-39
2022/11/10 07:27:23;;;;;;;230.40;59.83;;;;;;;;;;5020992;28;20040;-38
2022/11/10 07:30:08;;;;;;;152.10;49.53;;;;;;;;;;5017782;28;20096;-39
2022/11/10 07:33:00;;;;;;;199.30;55.78;;;;;;;;;;5016293;28;20053;-38
2022/11/10 07:35:53;;;;;;;171.95;51.70;;;;;;;;;;5020956;28;20049;-38
2022/11/10 07:38:38;;;;;;;187.88;53.40;;;;;;;;;;5022922;28;20428;-38
2022/11/10 07:41:23;;;;;;;177.75;50.35;;;;;;;;;;5016950;28;20147;-38
2022/11/10 07:44:08;;;;;;;187.15;56.15;;;;;;;;;;5018523;28;20156;-38
2022/11/10 07:46:53;;;;;;;178.80;52.50;;;;;;;;;;5019427;28;20075;-38
2022/11/10 07:49:38;;;;;;;158.40;49.28;;;;;;;;;;5020456;28;20100;-38
2022/11/10 07:52:23;;;;;;;181.43;54.47;;;;;;;;;;5020159;28;20501;-39
2022/11/10 07:55:08;;;;;;;150.77;50.25;;;;;;;;;;5014202;28;20103;-38
2022/11/10 07:57:57;;;;;;;222.93;57.15;;;;;;;;;;5017063;28;20821;-39
2022/11/10 08:00:43;;;;;;;192.65;56.17;;;;;;;;;;5017990;28;20057;-38
2022/11/10 08:03:28;;;;;;;195.07;58.22;;;;;;;;;;5016398;28;20127;-39
2022/11/10 08:06:13;;;;;;;228.60;61.83;;;;;;;;;;5017532;28;20097;-37
2022/11/10 08:08:59;;;;;;;176.57;53.20;;;;;;;;;;5022390;28;20143;-37
2022/11/10 08:11:44;;;;;;;190.30;55.35;;;;;;;;;;5019774;28;20056;-38
2022/11/10 08:14:29;;;;;;;201.15;57.08;;;;;;;;;;5019335;28;20069;-38
2022/11/10 08:17:14;;;;;;;145.50;45.60;;;;;;;;;;5020891;28;20520;-38
2022/11/10 08:19:58;;;;;;;169.73;50.38;;;;;;;;;;5012873;28;20068;-38
2022/11/10 08:22:44;;;;;;;187.18;50.65;;;;;;;;;;5018097;28;20052;-38
2022/11/10 08:25:30;;;;;;;157.68;48.78;;;;;;;;;;5015445;28;20580;-39
2022/11/10 08:28:19;;;;;;;181.38;51.47;;;;;;;;;;5014988;28;20529;-38
2022/11/10 08:31:04;;;;;;;178.65;50.35;;;;;;;;;;5014955;28;20061;-38
2022/11/10 08:33:50;;;;;;;183.07;49.33;;;;;;;;;;5018531;28;20073;-38
2022/11/10 08:36:36;;;;;;;129.88;42.97;;;;;;;;;;5017482;28;20048;-38
2022/11/10 08:39:22;;;;;;;139.07;44.63;;;;;;;;;;5016842;28;20056;-39
2022/11/10 08:42:23;;;;;;;157.23;46.53;;;;;;;;;;5015026;28;20070;-39
2022/11/10 08:45:08;;;;;;;181.90;50.75;;;;;;;;;;5017741;28;20056;-38
2022/11/10 08:47:58;;;;;;;117.95;43.75;;;;;;;;;;5021494;28;20402;-39
2022/11/10 08:50:43;;;;;;;132.27;43.95;;;;;;;;;;5019777;28;20526;-38
2022/11/10 08:53:29;;;;;;;137.05;45.67;;;;;;;;;;5022258;28;20402;-38
2022/11/10 08:56:13;;;;;;;117.28;41.70;;;;;;;;;;5019800;28;20048;-39
2022/11/10 08:58:59;;;;;;;138.25;44.90;;;;;;;;;;5014395;28;20685;-39
2022/11/10 09:01:44;;;;;;;144.68;45.85;;;;;;;;;;5015968;28;20064;-38
2022/11/10 09:04:28;;;;;;;102.68;38.40;;;;;;;;;;5012608;28;20060;-38
2022/11/10 09:07:14;;;;;;;133.32;43.00;;;;;;;;;;5014017;28;20468;-38
2022/11/10 09:09:59;;;;;;;149.15;46.08;;;;;;;;;;5015019;28;20099;-38
2022/11/10 09:12:51;;;;;;;118.75;41.40;;;;;;;;;;5013241;28;20520;-38
2022/11/10 09:15:36;;;;;;;145.48;42.97;;;;;;;;;;5015078;28;20402;-38
2022/11/10 09:18:21;;;;;;;134.05;43.15;;;;;;;;;;5017311;28;20056;-38
2022/11/10 09:21:10;;;;;;;141.45;45.00;;;;;;;;;;5015994;28;21275;-39
2022/11/10 09:23:55;;;;;;;156.60;47.05;;;;;;;;;;5018813;28;20104;-38
2022/11/10 09:26:44;;;;;;;115.68;41.33;;;;;;;;;;5021584;28;20187;-39
2022/11/10 09:29:29;;;;;;;119.00;41.63;;;;;;;;;;5017553;28;20111;-38
2022/11/10 09:32:14;;;;;;;126.20;43.28;;;;;;;;;;5018786;28;20464;-39
2022/11/10 09:34:58;;;;;;;125.65;42.70;;;;;;;;;;5014385;28;20188;-39
2022/11/10 09:37:44;;;;;;;136.25;43.92;;;;;;;;;;5019249;28;20102;-39
2022/11/10 09:40:37;;;;;;;144.88;45.55;;;;;;;;;;5020323;28;20052;-38
2022/11/10 09:43:26;;;;;;;125.32;44.33;;;;;;;;;;5011271;28;20057;-38
2022/11/10 09:46:16;;;;;;;116.88;42.85;;;;;;;;;;5014131;28;20575;-38
2022/11/10 09:49:20;;;;;;;135.93;45.28;;;;;;;;;;5013293;28;20410;-38
2022/11/10 09:52:05;;;;;;;129.18;44.60;;;;;;;;;;5014530;28;20099;-38
2022/11/10 09:55:17;;;;;;;129.70;42.90;;;;;;;;;;5015970;28;20053;-38
2022/11/10 09:58:03;;;;;;;160.32;45.97;;;;;;;;;;5011467;28;20053;-38
2022/11/10 10:01:01;;;;;;;113.97;39.97;;;;;;;;;;5013438;28;20053;-38
2022/11/10 10:03:51;;;;;;;116.07;41.20;;;;;;;;;;5016474;28;20411;-38
2022/11/10 10:06:41;;;;;;;100.63;39.42;;;;;;;;;;5015870;28;20057;-38
2022/11/10 10:09:49;;;;;;;105.75;37.75;;;;;;;;;;5013634;28;20068;-38
2022/11/10 10:12:43;;;;;;;128.52;42.53;;;;;;;;;;5009103;28;20077;-38
2022/11/10 10:15:43;;;;;;;115.82;42.78;;;;;;;;;;5017823;28;20041;-37
2022/11/10 10:18:37;;;;;;;152.60;52.40;;;;;;;;;;5017179;28;20081;-39
2022/11/10 10:21:22;;;;;;;;;;;;;;;;;;5017751;28;20049;-38
2022/11/10 10:24:10;;;;;;;105.75;39.05;;;;;;;;;;5016208;28;19928;-39
2022/11/10 10:27:09;;;;;;;127.47;40.90;;;;;;;;;;5013856;28;20134;-38
2022/11/10 10:29:54;;;;;;;118.05;43.20;;;;;;;;;;5013154;28;20057;-38
2022/11/10 10:32:39;;;;;;;94.63;36.90;;;;;;;;;;5016162;28;20177;-39
2022/11/10 10:35:24;;;;;;;97.00;38.65;;;;;;;;;;5023213;28;20144;-39
2022/11/10 10:38:21;;;;;;;103.18;39.70;;;;;;;;;;5016672;28;20052;-38
2022/11/10 10:41:26;;;;;;;105.38;39.35;;;;;;;;;;5022481;28;20052;-38
2022/11/10 10:44:16;;;;;;;95.40;36.78;;;;;;;;;;5018547;28;20060;-38
2022/11/10 10:47:01;;;;;;;109.70;40.80;;;;;;;;;;5018364;28;20153;-37
2022/11/10 10:49:46;;;;;;;98.78;37.42;;;;;;;;;;5020047;28;20053;-38
2022/11/10 10:52:31;;;;;;;96.93;36.42;;;;;;;;;;5016493;28;20064;-39
2022/11/10 10:55:16;;;;;;;80.70;33.80;;;;;;;;;;5018312;28;20057;-38
2022/11/10 10:58:03;;;;;;;88.57;35.00;;;;;;;;;;5019775;28;20056;-38
2022/11/10 11:01:04;;;;;;;84.13;34.60;;;;;;;;;;5020764;28;20509;-38
2022/11/10 11:03:50;;;;;;;84.15;32.97;;;;;;;;;;5017778;28;20138;-38
2022/11/10 11:06:35;;;;;;;83.72;32.45;;;;;;;;;;5017265;28;20580;-39
2022/11/10 11:09:25;;;;;;;80.45;32.53;;;;;;;;;;5017845;28;20060;-38
2022/11/10 11:12:12;;;;;;;81.40;33.08;;;;;;;;;;5018139;28;20052;-39
2022/11/10 11:15:10;;;;;;;74.68;30.55;;;;;;;;;;5016863;28;20410;-39
2022/11/10 11:17:56;;;;;;;82.13;31.95;;;;;;;;;;5021683;28;20103;-38
2022/11/10 11:20:56;;;;;;;77.88;30.00;;;;;;;;;;5021228;28;20065;-38
2022/11/10 11:23:47;;;;;;;64.85;28.63;;;;;;;;;;5018214;28;20060;-38
2022/11/10 11:26:46;;;;;;;66.45;28.70;;;;;;;;;;5021814;28;20147;-38
2022/11/10 11:29:31;;;;;;;63.10;27.25;;;;;;;;;;5023078;28;20056;-39
2022/11/10 11:32:42;;;;;;;66.13;29.23;;;;;;;;;;5017512;28;20200;-38
2022/11/10 11:35:27;;;;;;;73.38;30.38;;;;;;;;;;5024221;28;20052;-38
2022/11/10 11:38:35;;;;;;;65.88;27.77;;;;;;;;;;5018403;28;20434;-38
2022/11/10 11:41:21;;;;;;;60.22;25.25;;;;;;;;;;5019065;28;20061;-39
2022/11/10 11:44:11;;;;;;;68.85;27.35;;;;;;;;;;5017743;28;20056;-38
2022/11/10 11:47:07;;;;;;;68.75;26.63;;;;;;;;;;5012669;28;20056;-38
2022/11/10 11:50:14;;;;;;;72.43;27.52;;;;;;;;;;5018676;28;20064;-37
2022/11/10 11:53:14;;;;;;;63.42;26.63;;;;;;;;;;5019242;28;20084;-38
2022/11/10 11:56:05;;;;;;;65.55;26.00;;;;;;;;;;5015767;28;20052;-38
2022/11/10 11:59:10;;;;;;;66.38;26.40;;;;;;;;;;5018976;28;20056;-39
2022/11/10 12:01:56;;;;;;;85.75;29.95;;;;;;;;;;5015340;28;20096;-38
2022/11/10 12:04:41;;;;;;;57.17;25.65;;;;;;;;;;5023124;28;20060;-39
2022/11/10 12:07:45;;;;;;;61.63;27.92;;;;;;;;;;5021829;28;20418;-43
2022/11/10 12:10:39;;;;;;;76.53;27.40;;;;;;;;;;5016163;28;20060;-38
2022/11/10 12:13:46;;;;;;;80.80;30.38;;;;;;;;;;5018925;28;20045;-39
2022/11/10 12:16:32;;;;;;;74.40;26.02;;;;;;;;;;5012902;28;20068;-38
2022/11/10 12:19:27;;;;;;;54.10;23.65;;;;;;;;;;5014123;28;20048;-39
2022/11/10 12:22:19;;;;;;;67.50;23.67;;;;;;;;;;5016468;28;20095;-38
2022/11/10 12:25:16;;;;;;;61.20;23.65;;;;;;;;;;5014363;28;20510;-39
2022/11/10 12:28:07;;;;;;;63.05;23.83;;;;;;;;;;5017529;28;20517;-38
2022/11/10 12:30:55;;;;;;;53.78;23.65;;;;;;;;;;5021118;28;20057;-38
2022/11/10 12:34:05;;;;;;;60.63;24.00;;;;;;;;;;5016364;28;20056;-38
2022/11/10 12:36:51;;;;;;;56.55;22.27;;;;;;;;;;5017391;28;20045;-38
2022/11/10 12:39:36;;;;;;;67.88;24.13;;;;;;;;;;5017558;28;20056;-38
2022/11/10 12:42:23;;;;;;;62.85;21.83;;;;;;;;;;5018361;28;20116;-38
2022/11/10 12:45:28;;;;;;;70.25;23.27;;;;;;;;;;5015692;28;20883;-39
2022/11/10 12:48:14;;;;;;;66.63;23.73;;;;;;;;;;5017117;28;20181;-39
2022/11/10 12:51:08;;;;;;;51.45;21.73;;;;;;;;;;5019757;28;20532;-38
2022/11/10 12:53:54;;;;;;;45.70;19.60;;;;;;;;;;5020591;28;20057;-39
2022/11/10 12:56:42;;;;;;;53.08;21.25;;;;;;;;;;5017511;28;20207;-39
2022/11/10 12:59:29;;;;;;;44.80;19.45;;;;;;;;;;5021093;28;20540;-38
2022/11/10 13:02:17;;;;;;;41.38;18.52;;;;;;;;;;5016794;28;20495;-38
2022/11/10 13:05:08;;;;;;;49.78;18.23;;;;;;;;;;5014611;28;20052;-38
2022/11/10 13:08:11;;;;;;;58.78;20.45;;;;;;;;;;5018684;28;20060;-38
2022/11/10 13:11:00;;;;;;;46.20;19.33;;;;;;;;;;5010728;28;20056;-39
2022/11/10 13:13:56;;;;;;;48.10;18.52;;;;;;;;;;5014725;28;20131;-38
2022/11/10 13:16:48;;;;;;;41.30;18.10;;;;;;;;;;5019055;28;20118;-38
2022/11/10 13:19:33;;;;;;;51.30;18.05;;;;;;;;;;5014987;28;20584;-39
2022/11/10 13:22:31;;;;;;;52.55;17.70;;;;;;;;;;5014821;28;20044;-38
2022/11/10 13:25:34;;;;;;;47.97;17.05;;;;;;;;;;5012331;28;20044;-38
2022/11/10 13:28:38;;;;;;;39.53;15.10;;;;;;;;;;5013713;28;20526;-39
2022/11/10 13:31:26;;;;;;;44.80;17.40;;;;;;;;;;5017855;28;20139;-39
2022/11/10 13:34:24;;;;;;;39.95;16.45;;;;;;;;;;5013434;28;20061;-38
2022/11/10 13:37:28;;;;;;;39.13;16.25;;;;;;;;;;5016976;28;20513;-38
2022/11/10 13:40:16;;;;;;;32.92;16.30;;;;;;;;;;5015047;28;20064;-38
2022/11/10 13:43:01;;;;;;;40.50;15.07;;;;;;;;;;5015063;28;20457;-39
2022/11/10 13:45:46;;;;;;;46.95;17.48;;;;;;;;;;5014329;28;20053;-38
2022/11/10 13:48:31;;;;;;;48.50;17.70;;;;;;;;;;5017976;28;20192;-38
2022/11/10 13:51:39;;;;;;;60.28;18.88;;;;;;;;;;5017956;28;20052;-39
2022/11/10 13:54:24;;;;;;;57.90;18.23;;;;;;;;;;5016437;28;20049;-39
2022/11/10 13:57:16;;;;;;;58.03;18.98;;;;;;;;;;5014486;28;20167;-38
2022/11/10 14:00:20;;;;;;;60.33;18.80;;;;;;;;;;5018545;28;20444;-39
2022/11/10 14:03:05;;;;;;;;;;;;;;;;;;5014636;28;20049;-39
2022/11/10 14:05:59;;;;;;;55.85;16.67;;;;;;;;;;5014605;28;20028;-38
2022/11/10 14:08:51;;;;;;;37.58;16.80;;;;;;;;;;5018390;28;20048;-38
2022/11/10 14:11:39;;;;;;;33.38;15.60;;;;;;;;;;5018390;28;20577;-39
2022/11/10 14:14:38;;;;;;;51.25;18.13;;;;;;;;;;5016557;28;20053;-39
2022/11/10 14:17:28;;;;;;;43.15;16.05;;;;;;;;;;5018169;28;20057;-38
2022/11/10 14:20:36;;;;;;;34.60;14.60;;;;;;;;;;5011836;28;20791;-38
2022/11/10 14:23:25;;;;;;;56.08;17.63;;;;;;;;;;5017654;28;20052;-38
2022/11/10 14:26:16;;;;;;;39.53;14.70;;;;;;;;;;5016956;28;20188;-38
2022/11/10 14:29:25;;;;;;;61.38;17.90;;;;;;;;;;5012219;28;20053;-37
2022/11/10 14:32:18;;;;;;;42.63;14.63;;;;;;;;;;5014405;28;20433;-38
2022/11/10 14:35:04;;;;;;;42.72;15.63;;;;;;;;;;5013765;28;20221;-38
2022/11/10 14:37:50;;;;;;;47.15;16.75;;;;;;;;;;5013249;28;20421;-38
2022/11/10 14:40:40;;;;;;;58.28;16.80;;;;;;;;;;5020235;28;20576;-39
2022/11/10 14:43:35;;;;;;;31.73;14.30;;;;;;;;;;5014815;28;20149;-38
2022/11/10 14:46:22;;;;;;;38.92;15.77;;;;;;;;;;5015202;28;20103;-39
2022/11/10 14:49:08;;;;;;;53.63;17.23;;;;;;;;;;5012735;28;20660;-38
2022/11/10 14:51:55;;;;;;;53.75;19.95;;;;;;;;;;5011394;28;20048;-38
2022/11/10 14:54:42;;;;;;;44.20;19.23;;;;;;;;;;5014795;28;20049;-39
2022/11/10 14:57:28;;;;;;;56.70;19.02;;;;;;;;;;5015743;28;20056;-38
2022/11/10 15:00:14;;;;;;;53.60;16.83;;;;;;;;;;5016296;28;20057;-38
2022/11/10 15:02:59;;;;;;;48.35;18.13;;;;;;;;;;5020447;28;20457;-38
2022/11/10 15:05:44;;;;;;;50.95;19.67;;;;;;;;;;5017790;28;20402;-38
2022/11/10 15:08:30;;;;;;;52.85;19.08;;;;;;;;;;5017510;28;20077;-38
2022/11/10 15:11:36;;;;;;;53.45;20.13;;;;;;;;;;5015064;28;20095;-38
2022/11/10 15:14:34;;;;;;;55.78;19.70;;;;;;;;;;5012788;28;20524;-37
2022/11/10 15:17:19;;;;;;;56.08;21.30;;;;;;;;;;5016528;28;20053;-38
2022/11/10 15:20:06;;;;;;;51.42;22.10;;;;;;;;;;5013434;28;20131;-38
2022/11/10 15:22:51;;;;;;;59.63;22.63;;;;;;;;;;5017733;28;20056;-38
2022/11/10 15:25:38;;;;;;;60.90;23.40;;;;;;;;;;5022270;28;20063;-38
2022/11/10 15:28:26;;;;;;;62.88;24.13;;;;;;;;;;5015303;28;20124;-38
2022/11/10 15:31:12;;;;;;;66.28;23.58;;;;;;;;;;5019278;28;20044;-39
2022/11/10 15:34:03;;;;;;;64.47;23.05;;;;;;;;;;5020851;28;20099;-38
2022/11/10 15:36:48;;;;;;;63.50;22.30;;;;;;;;;;5018506;28;20171;-37
2022/11/10 15:39:32;;;;;;;76.07;24.13;;;;;;;;;;5018723;28;20041;-38
2022/11/10 15:42:22;;;;;;;64.68;22.98;;;;;;;;;;5017609;28;21278;-38
2022/11/10 15:45:07;;;;;;;72.55;23.42;;;;;;;;;;5017040;28;20052;-37
2022/11/10 15:47:52;;;;;;;74.10;25.35;;;;;;;;;;5020466;28;20435;-38
2022/11/10 15:50:37;;;;;;;61.67;23.65;;;;;;;;;;5023009;28;20079;-38
2022/11/10 15:53:34;;;;;;;67.45;26.77;;;;;;;;;;5017179;28;20052;-38
2022/11/10 15:56:20;;;;;;;77.95;26.58;;;;;;;;;;5019931;28;20057;-38
2022/11/10 15:59:05;;;;;;;55.00;23.27;;;;;;;;;;5016651;28;20057;-38
2022/11/10 16:01:50;;;;;;;76.88;25.63;;;;;;;;;;5018237;28;20151;-38
2022/11/10 16:04:35;;;;;;;56.20;22.33;;;;;;;;;;5021030;28;20103;-38
2022/11/10 16:07:20;;;;;;;64.03;25.00;;;;;;;;;;5015765;28;20535;-38
2022/11/10 16:10:05;;;;;;;87.97;27.13;;;;;;;;;;5015642;28;20061;-38
2022/11/10 16:12:51;;;;;;;63.22;23.17;;;;;;;;;;5017754;28;20132;-38
2022/11/10 16:15:36;;;;;;;80.10;24.80;;;;;;;;;;5011995;28;20064;-38
2022/11/10 16:18:23;;;;;;;79.38;25.55;;;;;;;;;;5017079;28;20108;-38
2022/11/10 16:21:13;;;;;;;70.22;24.38;;;;;;;;;;5018589;28;20052;-39
2022/11/10 16:23:58;;;;;;;72.00;23.90;;;;;;;;;;5019836;28;20525;-39
2022/11/10 16:26:43;;;;;;;72.43;24.20;;;;;;;;;;5022609;28;20115;-38
2022/11/10 16:29:29;;;;;;;78.53;25.63;;;;;;;;;;5022858;28;20183;-37